Create Tblcommutelog Verified Points Advance Search
| # | Trip ID | Id Commuter | Trip Date | Trip Num | Current Lat | Current Lng | Delta Distance | Current Time | Activity | Activity Confidence | Current Speed | |
|---|---|---|---|---|---|---|---|---|---|---|---|---|
| 72161 | 250527_753800_16619976_1708 | 753800 | (not set) | (not set) | 38.90917235364 | -77.002235530521 | 2.0767 | 2025-05-27 21:22:35.234 | on_foot | 100 | 2.7448210501846 | |
| 72162 | 250527_781890_16649582_1705 | 781890 | (not set) | (not set) | 39.105938447996 | -77.547105793414 | 0.9629 | 2025-05-27 21:22:35.401 | in_vehicle | 100 | 8.1450552987563 | |
| 72163 | 250527_769852_16636925_1629 | 769852 | (not set) | (not set) | 38.987908694412 | -77.146700432305 | 6.0364 | 2025-05-27 21:22:35.427 | in_vehicle | 100 | 1.8060386063104 | |
| 72164 | 250527_781273_16648948_1657 | 781273 | (not set) | (not set) | 38.963919138337 | -77.086726001274 | 3.7128 | 2025-05-27 21:22:35.993 | in_vehicle | 100 | -0.44703925898772 | |
| 72165 | 250527_781042_16648717_1702 | 781042 | (not set) | (not set) | 38.95193602562 | -77.002257744958 | 6.0879 | 2025-05-27 21:22:38.963 | in_vehicle | 100 | -0.44703925898772 | |
| 72166 | 250527_727233_16590787_1652 | 727233 | (not set) | (not set) | 39.183401396262 | -76.880511747971 | 13.0044 | 2025-05-27 21:22:39.204 | in_vehicle | 100 | 4.2379321752036 | |
| 72167 | 250527_781042_16648717_1702 | 781042 | (not set) | (not set) | 38.951935476909 | -77.00225257869 | 6.0879 | 2025-05-27 21:22:39.235 | in_vehicle | 100 | -0.44703925898772 | |
| 72168 | 250527_784815_16652847_1705 | 784815 | (not set) | (not set) | 38.912508468399 | -76.995420227681 | 1.1806 | 2025-05-27 21:22:39.736 | in_vehicle | 100 | 8.5160978837161 | |
| 72169 | 250527_769783_16636848_1709 | 769783 | (not set) | (not set) | 38.976800767065 | -77.015385350834 | 0.406 | 2025-05-27 21:22:40.659 | on_foot | 100 | 0.63479574776257 | |
| 72170 | 250527_784815_16652847_1705 | 784815 | (not set) | (not set) | 38.911617992627 | -76.998290372977 | 1.0142 | 2025-05-27 21:22:42.743 | in_vehicle | 100 | 8.1405849061665 | |
| 72171 | 250527_784104_16651957_1624 | 784104 | (not set) | (not set) | 39.121768492185 | -77.186735291629 | 16.1863 | 2025-05-27 21:22:44.249 | in_vehicle | 100 | 3.3796167979472 | |
| 72172 | 250527_779684_16647372_1715 | 779684 | (not set) | (not set) | 39.561054224049 | -76.980326930951 | 2.8796 | 2025-05-27 21:22:45.205 | in_vehicle | 100 | 4.4480406269279 | |
| 72173 | 250527_785147_16653236_1643 | 785147 | (not set) | (not set) | 38.976264292741 | -77.678779127633 | 16.217 | 2025-05-27 21:22:45.709 | in_vehicle | 100 | 9.2358310906864 | |
| 72174 | 250527_781890_16649582_1705 | 781890 | (not set) | (not set) | 39.104555761271 | -77.544722572208 | 1.1226 | 2025-05-27 21:22:48.17 | in_vehicle | 100 | 8.9631371427039 | |
| 72175 | 250527_770021_16637091_1713 | 770021 | (not set) | (not set) | 38.994105576249 | -77.031678158887 | 0.4656 | 2025-05-27 21:22:48.25 | unknown | 100 | 1.0773646141604 | |
| 72176 | 250527_769092_16636104_1618 | 769092 | (not set) | (not set) | 38.809263533371 | -77.492967970144 | 16.9254 | 2025-05-27 21:22:49.351 | still | 33 | 3.7730113458564 | |
| 72177 | 250527_108110_1016219_1656 | 108110 | (not set) | (not set) | 39.019309824665 | -77.102475162656 | 10.7314 | 2025-05-27 21:22:50.252 | in_vehicle | 100 | 9.4459395424106 | |
| 72178 | 250527_785403_16653539_1707 | 785403 | (not set) | (not set) | 38.9275972 | -77.0650577 | 1.454 | 2025-05-27 21:22:51.289 | on_bicycle | 100 | 4.6536786860622 | |
| 72179 | 250527_785403_16653539_1707 | 785403 | (not set) | (not set) | 38.9264907 | -77.058886 | 1.0973 | 2025-05-27 21:22:51.294 | on_bicycle | 100 | 3.2857385535598 | |
| 72180 | 250527_785403_16653539_1707 | 785403 | (not set) | (not set) | 38.9271091 | -77.0598051 | 1.1626 | 2025-05-27 21:22:51.296 | on_bicycle | 100 | 2.2351962949386 |